Archival Weather

Phoenix Sky Harbor Intl

Phoenix, Arizona (KPHX)

Report from: Thursday, December 7, 2023 11:51 AM MST
Current time: Monday, July 22, 2024 4:02 AM MST

Current weather – Weather history – Daily summaries
Weather forecast

Temperature21.7°C (71.1°F)
Dew point1.1°C (34.0°F)
Winds 4 kts (2.1 m/s, 4.6 mph) Southeast (140°)
Visibility10 mi. (16.1 km)
Clouds Few clouds 18,000 ft. (5,486 m)
Few clouds 25,000 ft. (7,620 m)
Scattered clouds 29,000 ft. (8,839 m)
Altimeter29.98 in.Hg (1015 mB)
Relative humidity26 %
Density altitude852 ft. (260 m)
Sea-level pressure101.4 kPa (1014 mB, 29.95 in.Hg)
Remarks Automated weather observing station with precipitation discriminator
Flight conditions Visual Meteorological Conditions
Raw dataKPHX 071851Z 14004KT 10SM FEW180 FEW250 SCT290 22/01 A2998 RMK AO2 SLP142 T02170011
An error has occurred. This application may no longer respond until reloaded. Reload 🗙